Buoy 52514

sailwx.info

Track history (hours):
 
Tides and Currents Weather Stations Pressure Air Temp Water Temp Dewpoint Dewpoint Depression Visibility Wind Speed Wind Dir Waves Ship Positions

Drifting buoy 52514

Last reported at 2015-Jul-07 18:00 UTC. Time now 2015-Jul-07 22:00 UTC.
Position N 21°04' E 123°33'.

Date/timePositionNaut miles runAvg speedWind from/ knotsBaromVisibWave heightAir tempDewpointWater temp
2015-Jul-07 18:00N 21°04' E 123°33'0 0.3
2015-Jul-07 17:00N 21°04' E 123°33'2 0.6
2015-Jul-07 13:00N 21°04' E 123°35'2 0.4
2015-Jul-07 09:00N 21°02' E 123°37'5 2.4
2015-Jul-07 07:00N 21°03' E 123°42'6 0.6
2015-Jul-06 21:00N 21°08' E 123°46'1 1.0
2015-Jul-06 20:00N 21°09' E 123°45'0 0.2
2015-Jul-06 18:00N 21°09' E 123°45'0 0.0
2015-Jul-06 17:00N 21°09' E 123°45'1 0.4
2015-Jul-06 14:00N 21°08' E 123°45'2 0.7
2015-Jul-06 11:00N 21°08' E 123°47'1 0.3
2015-Jul-06 09:00N 21°08' E 123°48'8 0.7
2015-Jul-05 22:00N 21°12' E 123°55'1 1.3
2015-Jul-05 21:00N 21°12' E 123°54'1 0.4
2015-Jul-05 18:00N 21°11' E 123°53'0 0.0
2015-Jul-05 17:00N 21°11' E 123°53'9 1.0
2015-Jul-05 08:00N 21°07' E 124°02'8 1.3
2015-Jul-05 02:00N 21°14' E 124°07'1 0.3
2015-Jul-04 21:00N 21°14' E 124°06'3 0.6
2015-Jul-04 16:00N 21°12' E 124°08'10 1.7
2015-Jul-04 10:00N 21°11' E 124°19'1 0.3
2015-Jul-04 06:00N 21°12' E 124°19'0 0.1
2015-Jul-04 05:00N 21°12' E 124°19'3 2.9
2015-Jul-04 04:00N 21°13' E 124°22'3 0.5
2015-Jul-03 21:00N 21°14' E 124°25'0 0.4
2015-Jul-03 20:00N 21°13' E 124°26'2 1.0
2015-Jul-03 18:00N 21°14' E 124°28'4 3.9
2015-Jul-03 17:00N 21°15' E 124°32'1 0.1
2015-Jul-03 11:00N 21°15' E 124°32'2 1.2
2015-Jul-03 09:00N 21°14' E 124°34'0 0.3
2015-Jul-03 08:00N 21°14' E 124°34'3 1.3
2015-Jul-03 06:00N 21°14' E 124°36'2 1.6
2015-Jul-03 05:00N 21°14' E 124°38'7 0.8
2015-Jul-02 20:00N 21°17' E 124°45'1 0.4
2015-Jul-02 17:00N 21°18' E 124°46'0 0.0
2015-Jul-02 16:00N 21°18' E 124°46'1 0.3
2015-Jul-02 12:00N 21°17' E 124°47'4 0.7
2015-Jul-02 07:00N 21°15' E 124°50'6 0.7
2015-Jul-01 22:00N 21°18' E 124°56'1 0.6
2015-Jul-01 20:00N 21°19' E 124°57'1 0.8
2015-Jul-01 19:00N 21°20' E 124°58'1 0.2
2015-Jul-01 13:00N 21°20' E 124°57'0 0.4
2015-Jul-01 12:00N 21°20' E 124°57'4 1.4
2015-Jul-01 09:00N 21°17' E 125°00'1 0.7
2015-Jul-01 08:00N 21°17' E 125°01'4 0.6
2015-Jul-01 01:00N 21°20' E 125°05'1 0.3
2015-Jun-30 21:00N 21°20' E 125°06'1 0.7
2015-Jun-30 20:00N 21°20' E 125°06'5 0.5
2015-Jun-30 10:00N 21°19' E 125°12'1 0.3
2015-Jun-30 05:00N 21°18' E 125°13'2 0.3
2015-Jun-29 22:00N 21°18' E 125°16'7 0.7
2015-Jun-29 11:00N 21°17' E 125°24'0 0.2
2015-Jun-29 09:00N 21°17' E 125°24'0 0.5
2015-Jun-29 08:00N 21°17' E 125°24'1 0.2
2015-Jun-29 05:00N 21°16' E 125°24'4 0.5
2015-Jun-28 22:00N 21°15' E 125°28'3 1.7
2015-Jun-28 20:00N 21°14' E 125°31'0 0.0
2015-Jun-28 18:00N 21°14' E 125°31'0 0.1
2015-Jun-28 17:00N 21°14' E 125°31'4 0.4
2015-Jun-28 08:00N 21°12' E 125°34'5 0.5
2015-Jun-27 22:00N 21°11' E 125°40'1 0.2
2015-Jun-27 18:00N 21°10' E 125°40'  
Track history (hours):
 
Tides and Currents Weather Stations Pressure Air Temp Water Temp Dewpoint Dewpoint Depression Visibility Wind Speed Wind Dir Waves Ship Positions

Drifting buoy 52514

Last reported at 2015-Jul-07 18:00 UTC. Time now 2015-Jul-07 22:00 UTC.
Position N 21°04' E 123°33'.

Date/timePositionNaut miles runAvg speedWind from/ knotsBaromVisibWave heightAir tempDewpointWater temp
2015-Jul-07 18:00N 21°04' E 123°33'0 0.3
2015-Jul-07 17:00N 21°04' E 123°33'2 0.6
2015-Jul-07 13:00N 21°04' E 123°35'2 0.4
2015-Jul-07 09:00N 21°02' E 123°37'5 2.4
2015-Jul-07 07:00N 21°03' E 123°42'6 0.6
2015-Jul-06 21:00N 21°08' E 123°46'1 1.0
2015-Jul-06 20:00N 21°09' E 123°45'0 0.2
2015-Jul-06 18:00N 21°09' E 123°45'0 0.0
2015-Jul-06 17:00N 21°09' E 123°45'1 0.4
2015-Jul-06 14:00N 21°08' E 123°45'2 0.7
2015-Jul-06 11:00N 21°08' E 123°47'1 0.3
2015-Jul-06 09:00N 21°08' E 123°48'8 0.7
2015-Jul-05 22:00N 21°12' E 123°55'1 1.3
2015-Jul-05 21:00N 21°12' E 123°54'1 0.4
2015-Jul-05 18:00N 21°11' E 123°53'0 0.0
2015-Jul-05 17:00N 21°11' E 123°53'9 1.0
2015-Jul-05 08:00N 21°07' E 124°02'8 1.3
2015-Jul-05 02:00N 21°14' E 124°07'1 0.3
2015-Jul-04 21:00N 21°14' E 124°06'3 0.6
2015-Jul-04 16:00N 21°12' E 124°08'10 1.7
2015-Jul-04 10:00N 21°11' E 124°19'1 0.3
2015-Jul-04 06:00N 21°12' E 124°19'0 0.1
2015-Jul-04 05:00N 21°12' E 124°19'3 2.9
2015-Jul-04 04:00N 21°13' E 124°22'3 0.5
2015-Jul-03 21:00N 21°14' E 124°25'0 0.4
2015-Jul-03 20:00N 21°13' E 124°26'2 1.0
2015-Jul-03 18:00N 21°14' E 124°28'4 3.9
2015-Jul-03 17:00N 21°15' E 124°32'1 0.1
2015-Jul-03 11:00N 21°15' E 124°32'2 1.2
2015-Jul-03 09:00N 21°14' E 124°34'0 0.3
2015-Jul-03 08:00N 21°14' E 124°34'3 1.3
2015-Jul-03 06:00N 21°14' E 124°36'2 1.6
2015-Jul-03 05:00N 21°14' E 124°38'7 0.8
2015-Jul-02 20:00N 21°17' E 124°45'1 0.4
2015-Jul-02 17:00N 21°18' E 124°46'0 0.0
2015-Jul-02 16:00N 21°18' E 124°46'1 0.3
2015-Jul-02 12:00N 21°17' E 124°47'4 0.7
2015-Jul-02 07:00N 21°15' E 124°50'6 0.7
2015-Jul-01 22:00N 21°18' E 124°56'1 0.6
2015-Jul-01 20:00N 21°19' E 124°57'1 0.8
2015-Jul-01 19:00N 21°20' E 124°58'1 0.2
2015-Jul-01 13:00N 21°20' E 124°57'0 0.4
2015-Jul-01 12:00N 21°20' E 124°57'4 1.4
2015-Jul-01 09:00N 21°17' E 125°00'1 0.7
2015-Jul-01 08:00N 21°17' E 125°01'4 0.6
2015-Jul-01 01:00N 21°20' E 125°05'1 0.3
2015-Jun-30 21:00N 21°20' E 125°06'1 0.7
2015-Jun-30 20:00N 21°20' E 125°06'5 0.5
2015-Jun-30 10:00N 21°19' E 125°12'1 0.3
2015-Jun-30 05:00N 21°18' E 125°13'2 0.3
2015-Jun-29 22:00N 21°18' E 125°16'7 0.7
2015-Jun-29 11:00N 21°17' E 125°24'0 0.2
2015-Jun-29 09:00N 21°17' E 125°24'0 0.5
2015-Jun-29 08:00N 21°17' E 125°24'1 0.2
2015-Jun-29 05:00N 21°16' E 125°24'4 0.5
2015-Jun-28 22:00N 21°15' E 125°28'3 1.7
2015-Jun-28 20:00N 21°14' E 125°31'0 0.0
2015-Jun-28 18:00N 21°14' E 125°31'0 0.1
2015-Jun-28 17:00N 21°14' E 125°31'4 0.4
2015-Jun-28 08:00N 21°12' E 125°34'5 0.5
2015-Jun-27 22:00N 21°11' E 125°40'1 0.2
2015-Jun-27 18:00N 21°10' E 125°40'  

Dump ship's entire track history